VOZ429 YPAD-YSSY
Flight info
| Callsign | VOZ429 |
|---|---|
| Flight time | N/A |
| Altitude | 39000 |
| Route | AVDEN1/05 AVDEN H247 CULIN Y59 RIVET |
| Aircraft | B737/M-SDE2E3FGHIRWXY/LB1 |
Departure
| Time | N/A |
|---|---|
| Airport | Adelaide International Airport (YPAD) |
Arrival
| Time | 2026-05-01 08:43 |
|---|---|
| Airport | Sydney Kingsford Smith International Airport (YSSY) |
| Time | Latitude | Longitude | Altitude | Speed | Heading |
|---|---|---|---|---|---|
| 2026-05-01 07:23 | -34.98093 | 140.28773 | 35082 ft | 476 kts | 84° |
| 2026-05-01 07:23 | -34.97614 | 140.36815 | 35764 ft | 476 kts | 86° |
| 2026-05-01 07:24 | -34.97567 | 140.40853 | 36091 ft | 477 kts | 89° |
| 2026-05-01 07:24 | -34.97621 | 140.44893 | 36413 ft | 477 kts | 90° |
| 2026-05-01 07:24 | -34.97707 | 140.48937 | 36712 ft | 477 kts | 90° |
| 2026-05-01 07:24 | -34.97790 | 140.52965 | 37164 ft | 473 kts | 90° |
| 2026-05-01 07:25 | -34.97856 | 140.56941 | 37687 ft | 467 kts | 89° |
| 2026-05-01 07:25 | -34.97905 | 140.60897 | 38012 ft | 466 kts | 89° |
| 2026-05-01 07:25 | -34.97939 | 140.64852 | 38219 ft | 468 kts | 89° |
| 2026-05-01 07:25 | -34.97966 | 140.68829 | 38382 ft | 470 kts | 89° |
| 2026-05-01 07:26 | -34.97988 | 140.72827 | 38551 ft | 473 kts | 89° |
| 2026-05-01 07:26 | -34.98009 | 140.76833 | 38779 ft | 473 kts | 89° |
| 2026-05-01 07:26 | -34.98029 | 140.80844 | 39027 ft | 473 kts | 89° |
| 2026-05-01 07:27 | -34.98068 | 140.88932 | 39041 ft | 478 kts | 89° |
| 2026-05-01 07:27 | -34.98103 | 140.97001 | 39038 ft | 473 kts | 89° |
| 2026-05-01 07:28 | -34.98132 | 141.04993 | 39043 ft | 470 kts | 89° |
| 2026-05-01 07:28 | -34.98156 | 141.12948 | 39048 ft | 468 kts | 89° |
| 2026-05-01 07:29 | -34.98175 | 141.20822 | 39057 ft | 467 kts | 89° |
| 2026-05-01 07:29 | -34.98187 | 141.28736 | 39058 ft | 467 kts | 89° |
| 2026-05-01 07:30 | -34.98196 | 141.36654 | 39064 ft | 468 kts | 89° |
| 2026-05-01 07:30 | -34.98201 | 141.44597 | 39070 ft | 469 kts | 89° |
| 2026-05-01 07:31 | -34.98198 | 141.52563 | 39069 ft | 471 kts | 89° |
| 2026-05-01 07:32 | -34.98168 | 141.72604 | 39086 ft | 474 kts | 88° |
| 2026-05-01 07:33 | -34.98135 | 141.84681 | 39093 ft | 475 kts | 88° |
| 2026-05-01 07:33 | -34.98095 | 141.95400 | 39097 ft | 475 kts | 88° |
| 2026-05-01 07:34 | -34.98040 | 142.07460 | 39102 ft | 474 kts | 88° |
| 2026-05-01 07:35 | -34.97997 | 142.15486 | 39105 ft | 473 kts | 88° |
| 2026-05-01 07:35 | -34.97948 | 142.23497 | 39113 ft | 472 kts | 88° |
| 2026-05-01 07:36 | -34.97894 | 142.31501 | 39116 ft | 472 kts | 88° |
| 2026-05-01 07:36 | -34.97835 | 142.39500 | 39120 ft | 472 kts | 88° |
| 2026-05-01 07:37 | -34.97736 | 142.51500 | 39092 ft | 472 kts | 88° |
| 2026-05-01 07:37 | -34.97663 | 142.59499 | 39091 ft | 472 kts | 88° |
| 2026-05-01 07:38 | -34.97586 | 142.67498 | 39093 ft | 472 kts | 88° |
| 2026-05-01 07:39 | -34.97460 | 142.79424 | 39100 ft | 471 kts | 88° |
| 2026-05-01 07:39 | -34.97322 | 142.91411 | 39103 ft | 471 kts | 88° |
| 2026-05-01 07:40 | -34.97224 | 142.99392 | 39106 ft | 471 kts | 88° |
| 2026-05-01 07:40 | -34.97121 | 143.07375 | 39112 ft | 471 kts | 88° |
| 2026-05-01 07:41 | -34.97013 | 143.15357 | 39111 ft | 471 kts | 88° |
| 2026-05-01 07:42 | -34.96846 | 143.27339 | 39120 ft | 471 kts | 88° |
| 2026-05-01 07:42 | -34.96749 | 143.35334 | 39122 ft | 471 kts | 88° |
| 2026-05-01 07:43 | -34.96652 | 143.43320 | 39120 ft | 472 kts | 88° |
| 2026-05-01 07:43 | -34.96492 | 143.55321 | 39129 ft | 472 kts | 88° |
| 2026-05-01 07:44 | -34.96258 | 143.71322 | 39132 ft | 472 kts | 88° |
| 2026-05-01 07:45 | -34.96132 | 143.79318 | 39138 ft | 472 kts | 88° |
| 2026-05-01 07:45 | -34.96002 | 143.87315 | 39154 ft | 472 kts | 88° |
| 2026-05-01 07:46 | -34.95867 | 143.95304 | 39176 ft | 471 kts | 88° |
| 2026-05-01 07:47 | -34.95654 | 144.07283 | 39184 ft | 471 kts | 88° |
| 2026-05-01 07:47 | -34.95505 | 144.15272 | 39192 ft | 471 kts | 88° |
| 2026-05-01 07:48 | -34.95272 | 144.27255 | 39195 ft | 471 kts | 88° |
| 2026-05-01 07:48 | -34.95111 | 144.35242 | 39209 ft | 472 kts | 88° |
| 2026-05-01 07:49 | -34.94860 | 144.47237 | 39202 ft | 472 kts | 88° |
| 2026-05-01 07:50 | -34.94684 | 144.55238 | 39208 ft | 472 kts | 88° |
| 2026-05-01 07:50 | -34.94413 | 144.67186 | 39221 ft | 472 kts | 88° |
| 2026-05-01 07:51 | -34.94225 | 144.75184 | 39229 ft | 472 kts | 88° |
| 2026-05-01 07:52 | -34.93933 | 144.87180 | 39229 ft | 472 kts | 88° |
| 2026-05-01 07:52 | -34.93732 | 144.95170 | 39237 ft | 472 kts | 88° |
| 2026-05-01 07:53 | -34.93423 | 145.07163 | 39239 ft | 472 kts | 88° |
| 2026-05-01 07:53 | -34.93205 | 145.15157 | 39250 ft | 472 kts | 87° |
| 2026-05-01 07:55 | -34.92628 | 145.35119 | 39249 ft | 472 kts | 87° |
| 2026-05-01 07:56 | -34.92021 | 145.55103 | 39249 ft | 472 kts | 87° |
| 2026-05-01 07:57 | -34.91644 | 145.67034 | 39249 ft | 472 kts | 87° |
| 2026-05-01 07:58 | -34.91120 | 145.83015 | 39248 ft | 472 kts | 87° |
| 2026-05-01 07:59 | -34.90576 | 145.98991 | 39256 ft | 472 kts | 87° |
| 2026-05-01 08:00 | -34.89720 | 146.22920 | 39259 ft | 471 kts | 87° |
| 2026-05-01 08:01 | -34.89125 | 146.38847 | 39280 ft | 470 kts | 87° |
| 2026-05-01 08:02 | -34.88665 | 146.50782 | 39288 ft | 470 kts | 87° |
| 2026-05-01 08:03 | -34.87384 | 146.62607 | 39275 ft | 470 kts | 79° |
| 2026-05-01 08:03 | -34.85682 | 146.74315 | 39297 ft | 470 kts | 80° |
| 2026-05-01 08:04 | -34.83502 | 146.90011 | 39294 ft | 470 kts | 79° |
| 2026-05-01 08:05 | -34.81861 | 147.01587 | 39295 ft | 470 kts | 79° |
| 2026-05-01 08:06 | -34.80177 | 147.13347 | 39299 ft | 470 kts | 79° |
| 2026-05-01 08:07 | -34.77917 | 147.29003 | 39306 ft | 470 kts | 79° |
| 2026-05-01 08:08 | -34.76213 | 147.40727 | 39306 ft | 469 kts | 79° |
| 2026-05-01 08:09 | -34.73921 | 147.56350 | 39315 ft | 469 kts | 79° |
| 2026-05-01 08:09 | -34.72768 | 147.64160 | 39313 ft | 469 kts | 79° |
| 2026-05-01 08:10 | -34.70454 | 147.79721 | 39315 ft | 470 kts | 79° |
| 2026-05-01 08:11 | -34.68111 | 147.95338 | 39322 ft | 470 kts | 79° |
| 2026-05-01 08:12 | -34.66339 | 148.07053 | 39322 ft | 470 kts | 79° |
| 2026-05-01 08:13 | -34.64556 | 148.18761 | 39320 ft | 470 kts | 79° |
| 2026-05-01 08:13 | -34.62764 | 148.30447 | 39331 ft | 469 kts | 79° |
| 2026-05-01 08:14 | -34.61564 | 148.38234 | 39333 ft | 469 kts | 79° |
| 2026-05-01 08:14 | -34.60361 | 148.46014 | 39341 ft | 469 kts | 79° |
| 2026-05-01 08:15 | -34.58555 | 148.57621 | 39344 ft | 469 kts | 79° |
| 2026-05-01 08:16 | -34.57336 | 148.65399 | 39341 ft | 469 kts | 79° |
| 2026-05-01 08:16 | -34.56115 | 148.73170 | 39343 ft | 469 kts | 79° |
| 2026-05-01 08:17 | -34.54888 | 148.80935 | 39341 ft | 469 kts | 79° |
| 2026-05-01 08:17 | -34.53657 | 148.88702 | 39334 ft | 469 kts | 79° |
| 2026-05-01 08:18 | -34.52422 | 148.96461 | 39343 ft | 468 kts | 79° |
| 2026-05-01 08:19 | -34.49939 | 149.11957 | 39340 ft | 468 kts | 79° |
| 2026-05-01 08:19 | -34.48691 | 149.19697 | 39344 ft | 468 kts | 79° |
| 2026-05-01 08:20 | -34.47437 | 149.27436 | 39339 ft | 468 kts | 79° |
| 2026-05-01 08:20 | -34.46180 | 149.35171 | 39343 ft | 468 kts | 79° |
| 2026-05-01 08:21 | -34.44917 | 149.42901 | 39233 ft | 470 kts | 79° |
| 2026-05-01 08:21 | -34.44276 | 149.46812 | 38608 ft | 474 kts | 79° |
| 2026-05-01 08:21 | -34.43638 | 149.50702 | 37979 ft | 469 kts | 79° |
| 2026-05-01 08:21 | -34.43002 | 149.54569 | 37264 ft | 467 kts | 78° |
| 2026-05-01 08:22 | -34.42368 | 149.58414 | 36540 ft | 464 kts | 78° |
| 2026-05-01 08:22 | -34.41715 | 149.62237 | 35740 ft | 464 kts | 78° |
| 2026-05-01 08:22 | -34.41120 | 149.66076 | 34883 ft | 464 kts | 80° |
| 2026-05-01 08:22 | -34.40516 | 149.69912 | 33997 ft | 464 kts | 79° |
| 2026-05-01 08:23 | -34.39868 | 149.73734 | 33088 ft | 464 kts | 78° |
| 2026-05-01 08:23 | -34.39211 | 149.77563 | 32124 ft | 464 kts | 77° |
| 2026-05-01 08:23 | -34.38560 | 149.81392 | 31113 ft | 465 kts | 78° |
| 2026-05-01 08:23 | -34.37912 | 149.85226 | 30045 ft | 466 kts | 78° |
| 2026-05-01 08:24 | -34.37485 | 149.87768 | 29403 ft | 464 kts | 78° |
| 2026-05-01 08:24 | -34.36848 | 149.91568 | 28618 ft | 457 kts | 78° |
| 2026-05-01 08:24 | -34.36219 | 149.95315 | 27814 ft | 451 kts | 78° |
| 2026-05-01 08:24 | -34.35597 | 149.99012 | 27024 ft | 446 kts | 78° |
| 2026-05-01 08:25 | -34.34981 | 150.02667 | 26235 ft | 440 kts | 78° |
| 2026-05-01 08:25 | -34.34372 | 150.06270 | 25453 ft | 435 kts | 78° |
| 2026-05-01 08:25 | -34.33769 | 150.09834 | 24673 ft | 429 kts | 78° |
| 2026-05-01 08:25 | -34.33172 | 150.13351 | 23896 ft | 425 kts | 77° |
| 2026-05-01 08:26 | -34.32581 | 150.16830 | 23122 ft | 420 kts | 77° |
| 2026-05-01 08:26 | -34.31994 | 150.20275 | 22341 ft | 416 kts | 77° |
| 2026-05-01 08:26 | -34.31414 | 150.23678 | 21569 ft | 411 kts | 78° |
| 2026-05-01 08:26 | -34.30838 | 150.27048 | 20794 ft | 407 kts | 78° |
| 2026-05-01 08:27 | -34.30268 | 150.30378 | 20028 ft | 402 kts | 78° |
| 2026-05-01 08:27 | -34.29704 | 150.33668 | 19264 ft | 398 kts | 78° |
| 2026-05-01 08:27 | -34.29145 | 150.36929 | 18501 ft | 394 kts | 78° |
| 2026-05-01 08:27 | -34.28590 | 150.40150 | 17741 ft | 390 kts | 78° |
| 2026-05-01 08:28 | -34.27971 | 150.43317 | 16968 ft | 385 kts | 70° |
| 2026-05-01 08:28 | -34.26796 | 150.46211 | 16236 ft | 381 kts | 61° |
| 2026-05-01 08:28 | -34.25558 | 150.48880 | 15521 ft | 378 kts | 60° |
| 2026-05-01 08:28 | -34.24277 | 150.51635 | 14784 ft | 374 kts | 60° |
| 2026-05-01 08:29 | -34.23023 | 150.54368 | 14047 ft | 370 kts | 61° |
| 2026-05-01 08:29 | -34.21793 | 150.57081 | 13318 ft | 366 kts | 61° |
| 2026-05-01 08:29 | -34.20584 | 150.59768 | 12587 ft | 362 kts | 61° |
| 2026-05-01 08:29 | -34.19385 | 150.62439 | 11686 ft | 363 kts | 61° |
| 2026-05-01 08:30 | -34.18197 | 150.65082 | 10845 ft | 362 kts | 61° |
| 2026-05-01 08:30 | -34.17016 | 150.67709 | 10572 ft | 344 kts | 61° |
| 2026-05-01 08:30 | -34.15905 | 150.70179 | 10407 ft | 326 kts | 61° |
| 2026-05-01 08:30 | -34.14850 | 150.72523 | 10269 ft | 310 kts | 61° |
| 2026-05-01 08:31 | -34.13847 | 150.74751 | 10134 ft | 294 kts | 61° |
| 2026-05-01 08:31 | -34.12892 | 150.76870 | 10018 ft | 281 kts | 61° |
| 2026-05-01 08:31 | -34.11968 | 150.78919 | 9690 ft | 276 kts | 61° |
| 2026-05-01 08:31 | -34.11056 | 150.80939 | 9340 ft | 273 kts | 61° |
| 2026-05-01 08:32 | -34.10223 | 150.82785 | 9027 ft | 270 kts | 61° |
| 2026-05-01 08:32 | -34.09333 | 150.84759 | 8792 ft | 267 kts | 61° |
| 2026-05-01 08:32 | -34.08448 | 150.86727 | 8564 ft | 268 kts | 61° |
| 2026-05-01 08:32 | -34.07556 | 150.88708 | 8347 ft | 270 kts | 61° |
| 2026-05-01 08:33 | -34.06661 | 150.90697 | 8118 ft | 269 kts | 61° |
| 2026-05-01 08:33 | -34.05804 | 150.92598 | 7895 ft | 268 kts | 61° |
| 2026-05-01 08:33 | -34.04913 | 150.94572 | 7668 ft | 267 kts | 61° |
| 2026-05-01 08:33 | -34.04061 | 150.96460 | 7451 ft | 266 kts | 60° |
| 2026-05-01 08:34 | -34.03249 | 150.98463 | 7206 ft | 266 kts | 73° |
| 2026-05-01 08:34 | -34.03197 | 151.00668 | 6992 ft | 266 kts | 103° |
| 2026-05-01 08:34 | -34.03983 | 151.02670 | 6778 ft | 266 kts | 126° |
| 2026-05-01 08:34 | -34.05200 | 151.04342 | 6572 ft | 265 kts | 133° |
| 2026-05-01 08:35 | -34.06491 | 151.05937 | 6337 ft | 265 kts | 133° |
| 2026-05-01 08:35 | -34.07851 | 151.07426 | 6089 ft | 266 kts | 148° |
| 2026-05-01 08:35 | -34.09563 | 151.08211 | 5892 ft | 265 kts | 166° |
| 2026-05-01 08:35 | -34.11365 | 151.08664 | 5662 ft | 264 kts | 168° |
| 2026-05-01 08:36 | -34.13165 | 151.09098 | 5441 ft | 264 kts | 168° |
| 2026-05-01 08:36 | -34.14963 | 151.09545 | 5217 ft | 263 kts | 167° |
| 2026-05-01 08:36 | -34.16690 | 151.10206 | 4940 ft | 259 kts | 148° |
| 2026-05-01 08:36 | -34.17958 | 151.11695 | 4567 ft | 255 kts | 118° |
| 2026-05-01 08:37 | -34.18443 | 151.13714 | 4199 ft | 251 kts | 90° |
| 2026-05-01 08:37 | -34.18344 | 151.15802 | 3880 ft | 248 kts | 84° |
| 2026-05-01 08:37 | -34.18167 | 151.17854 | 3574 ft | 243 kts | 83° |
| 2026-05-01 08:37 | -34.17777 | 151.19783 | 3285 ft | 232 kts | 61° |
| 2026-05-01 08:38 | -34.16684 | 151.21116 | 3067 ft | 219 kts | 27° |
| 2026-05-01 08:38 | -34.15292 | 151.21637 | 3031 ft | 201 kts | 14° |
| 2026-05-01 08:38 | -34.13983 | 151.21975 | 3009 ft | 187 kts | 13° |
| 2026-05-01 08:38 | -34.12719 | 151.22238 | 3019 ft | 183 kts | 1° |
| 2026-05-01 08:39 | -34.11467 | 151.21976 | 2989 ft | 182 kts | 349° |
| 2026-05-01 08:39 | -34.10247 | 151.21662 | 2778 ft | 177 kts | 350° |
| 2026-05-01 08:39 | -34.09064 | 151.21358 | 2553 ft | 170 kts | 349° |
| 2026-05-01 08:39 | -34.07948 | 151.21069 | 2350 ft | 160 kts | 349° |
| 2026-05-01 08:40 | -34.05789 | 151.20507 | 1926 ft | 160 kts | 349° |
| 2026-05-01 08:40 | -34.04708 | 151.20225 | 1710 ft | 157 kts | 349° |
| 2026-05-01 08:40 | -34.03653 | 151.19950 | 1531 ft | 155 kts | 349° |
| 2026-05-01 08:41 | -34.02607 | 151.19678 | 1284 ft | 153 kts | 348° |
| 2026-05-01 08:41 | -34.01596 | 151.19414 | 1092 ft | 144 kts | 348° |
| 2026-05-01 08:41 | -34.00632 | 151.19163 | 917 ft | 140 kts | 348° |
| 2026-05-01 08:41 | -33.99699 | 151.18920 | 727 ft | 134 kts | 348° |
| 2026-05-01 08:42 | -33.98797 | 151.18685 | 560 ft | 133 kts | 348° |
| 2026-05-01 08:42 | -33.97890 | 151.18450 | 391 ft | 133 kts | 348° |
| 2026-05-01 08:42 | -33.96984 | 151.18209 | 212 ft | 133 kts | 348° |
| 2026-05-01 08:42 | -33.96085 | 151.17977 | 34 ft | 128 kts | 349° |
| 2026-05-01 08:43 | -33.95319 | 151.17778 | 28 ft | 92 kts | 347° |
| 2026-05-01 08:43 | -33.94866 | 151.17660 | 28 ft | 40 kts | 349° |
| 2026-05-01 08:43 | -33.94628 | 151.17649 | 28 ft | 25 kts | 8° |
| 2026-05-01 08:43 | -33.94504 | 151.17687 | 29 ft | 15 kts | 18° |
| 2026-05-01 08:44 | -33.94409 | 151.17724 | 29 ft | 14 kts | 18° |
| 2026-05-01 08:44 | -33.94315 | 151.17730 | 29 ft | 13 kts | 345° |
| 2026-05-01 08:44 | -33.94226 | 151.17703 | 28 ft | 13 kts | 346° |
| 2026-05-01 08:44 | -33.94140 | 151.17676 | 28 ft | 13 kts | 346° |
| 2026-05-01 08:45 | -33.94056 | 151.17653 | 27 ft | 12 kts | 347° |
| 2026-05-01 08:45 | -33.93970 | 151.17630 | 28 ft | 14 kts | 347° |
| 2026-05-01 08:45 | -33.93890 | 151.17621 | 28 ft | 9 kts | 24° |
| 2026-05-01 08:45 | -33.93862 | 151.17685 | 28 ft | 9 kts | 76° |
| 2026-05-01 08:46 | -33.93836 | 151.17749 | 29 ft | 9 kts | 39° |
| 2026-05-01 08:46 | -33.93781 | 151.17772 | 29 ft | 8 kts | 14° |
| 2026-05-01 08:46 | -33.93733 | 151.17790 | 29 ft | 6 kts | 33° |
| 2026-05-01 08:46 | -33.93723 | 151.17835 | 29 ft | 6 kts | 97° |
| 2026-05-01 08:47 | -33.93721 | 151.17881 | 29 ft | 2 kts | 82° |
| 2026-05-01 08:47 | -33.93721 | 151.17893 | 29 ft | 1 kts | 104° |
| 2026-05-01 08:47 | -33.93725 | 151.17902 | 29 ft | 2 kts | 108° |
| 2026-05-01 08:47 | -33.93721 | 151.17915 | 29 ft | 2 kts | 61° |
| 2026-05-01 08:48 | -33.93720 | 151.17918 | 29 ft | 0 kts | 61° |